sensor_id;sensor_type;location;lat;lon;timestamp;P1;durP1;ratioP1;P2;durP2;ratioP2
34248;SDS011;20508;50.834;3.160;2022-11-06T00:01:51;6.40;;;2.83;;
34248;SDS011;20508;50.834;3.160;2022-11-06T00:04:16;5.90;;;3.20;;
34248;SDS011;20508;50.834;3.160;2022-11-06T00:06:42;5.22;;;3.10;;
34248;SDS011;20508;50.834;3.160;2022-11-06T00:09:15;6.53;;;2.95;;
34248;SDS011;20508;50.834;3.160;2022-11-06T00:11:42;3.78;;;3.00;;
34248;SDS011;20508;50.834;3.160;2022-11-06T00:14:08;8.88;;;3.17;;
34248;SDS011;20508;50.834;3.160;2022-11-06T00:16:38;7.60;;;3.15;;
34248;SDS011;20508;50.834;3.160;2022-11-06T00:19:05;4.85;;;2.90;;
34248;SDS011;20508;50.834;3.160;2022-11-06T00:21:31;8.00;;;3.85;;
34248;SDS011;20508;50.834;3.160;2022-11-06T00:23:58;4.80;;;3.17;;
34248;SDS011;20508;50.834;3.160;2022-11-06T00:26:27;8.18;;;3.35;;
34248;SDS011;20508;50.834;3.160;2022-11-06T00:28:54;6.93;;;3.15;;
34248;SDS011;20508;50.834;3.160;2022-11-06T00:31:25;6.22;;;2.85;;
34248;SDS011;20508;50.834;3.160;2022-11-06T00:36:20;6.45;;;3.15;;
34248;SDS011;20508;50.834;3.160;2022-11-06T00:38:49;5.50;;;3.00;;
34248;SDS011;20508;50.834;3.160;2022-11-06T00:41:17;6.53;;;3.22;;
34248;SDS011;20508;50.834;3.160;2022-11-06T00:43:46;7.07;;;3.30;;
34248;SDS011;20508;50.834;3.160;2022-11-06T00:46:13;7.15;;;3.00;;
34248;SDS011;20508;50.834;3.160;2022-11-06T00:48:40;5.72;;;3.03;;
34248;SDS011;20508;50.834;3.160;2022-11-06T00:51:07;6.63;;;3.15;;
34248;SDS011;20508;50.834;3.160;2022-11-06T00:53:39;5.72;;;3.08;;
34248;SDS011;20508;50.834;3.160;2022-11-06T00:58:34;8.55;;;3.42;;
34248;SDS011;20508;50.834;3.160;2022-11-06T01:03:35;5.93;;;2.95;;
34248;SDS011;20508;50.834;3.160;2022-11-06T01:06:03;7.53;;;3.17;;
34248;SDS011;20508;50.834;3.160;2022-11-06T01:08:30;7.43;;;3.20;;
34248;SDS011;20508;50.834;3.160;2022-11-06T01:10:56;4.97;;;3.08;;
34248;SDS011;20508;50.834;3.160;2022-11-06T01:13:21;5.95;;;3.08;;
34248;SDS011;20508;50.834;3.160;2022-11-06T01:15:47;5.40;;;3.30;;
34248;SDS011;20508;50.834;3.160;2022-11-06T01:18:13;6.97;;;3.17;;
34248;SDS011;20508;50.834;3.160;2022-11-06T01:20:38;5.05;;;3.05;;
34248;SDS011;20508;50.834;3.160;2022-11-06T01:23:04;6.88;;;3.10;;
34248;SDS011;20508;50.834;3.160;2022-11-06T01:25:30;5.65;;;3.38;;
34248;SDS011;20508;50.834;3.160;2022-11-06T01:27:55;6.93;;;3.10;;
34248;SDS011;20508;50.834;3.160;2022-11-06T01:30:21;7.13;;;3.20;;
34248;SDS011;20508;50.834;3.160;2022-11-06T01:32:47;7.70;;;3.20;;
34248;SDS011;20508;50.834;3.160;2022-11-06T01:35:12;7.15;;;3.10;;
34248;SDS011;20508;50.834;3.160;2022-11-06T01:37:38;5.15;;;2.83;;
34248;SDS011;20508;50.834;3.160;2022-11-06T01:40:04;6.07;;;3.10;;
34248;SDS011;20508;50.834;3.160;2022-11-06T01:42:30;5.78;;;2.97;;
34248;SDS011;20508;50.834;3.160;2022-11-06T01:45:01;7.47;;;3.17;;
34248;SDS011;20508;50.834;3.160;2022-11-06T01:47:50;6.60;;;3.55;;
34248;SDS011;20508;50.834;3.160;2022-11-06T01:50:16;5.05;;;2.90;;
34248;SDS011;20508;50.834;3.160;2022-11-06T01:52:42;7.03;;;2.90;;
34248;SDS011;20508;50.834;3.160;2022-11-06T01:55:15;9.63;;;3.00;;
34248;SDS011;20508;50.834;3.160;2022-11-06T01:57:45;6.72;;;2.95;;
34248;SDS011;20508;50.834;3.160;2022-11-06T02:00:12;4.55;;;2.90;;
34248;SDS011;20508;50.834;3.160;2022-11-06T02:02:39;6.15;;;3.13;;
34248;SDS011;20508;50.834;3.160;2022-11-06T02:05:05;8.13;;;2.92;;
34248;SDS011;20508;50.834;3.160;2022-11-06T02:07:31;6.07;;;3.40;;
34248;SDS011;20508;50.834;3.160;2022-11-06T02:09:58;5.60;;;3.47;;
34248;SDS011;20508;50.834;3.160;2022-11-06T02:15:11;7.35;;;2.97;;
34248;SDS011;20508;50.834;3.160;2022-11-06T02:18:23;4.78;;;3.33;;
34248;SDS011;20508;50.834;3.160;2022-11-06T02:29:23;6.65;;;3.35;;
34248;SDS011;20508;50.834;3.160;2022-11-06T02:31:53;6.20;;;3.25;;
34248;SDS011;20508;50.834;3.160;2022-11-06T02:34:22;5.50;;;2.80;;
34248;SDS011;20508;50.834;3.160;2022-11-06T02:37:00;5.88;;;3.10;;
34248;SDS011;20508;50.834;3.160;2022-11-06T02:39:30;5.50;;;2.70;;
34248;SDS011;20508;50.834;3.160;2022-11-06T02:41:58;8.32;;;3.70;;
34248;SDS011;20508;50.834;3.160;2022-11-06T02:44:26;6.03;;;2.97;;
34248;SDS011;20508;50.834;3.160;2022-11-06T02:46:57;5.72;;;2.97;;
34248;SDS011;20508;50.834;3.160;2022-11-06T02:49:28;4.30;;;2.90;;
34248;SDS011;20508;50.834;3.160;2022-11-06T02:52:09;5.32;;;2.78;;
34248;SDS011;20508;50.834;3.160;2022-11-06T02:54:44;6.82;;;3.00;;
34248;SDS011;20508;50.834;3.160;2022-11-06T02:57:13;6.13;;;2.58;;
34248;SDS011;20508;50.834;3.160;2022-11-06T03:02:15;6.07;;;2.60;;
34248;SDS011;20508;50.834;3.160;2022-11-06T03:04:53;7.50;;;3.25;;
34248;SDS011;20508;50.834;3.160;2022-11-06T03:07:28;4.63;;;2.70;;
34248;SDS011;20508;50.834;3.160;2022-11-06T03:10:01;5.65;;;2.45;;
34248;SDS011;20508;50.834;3.160;2022-11-06T03:12:48;3.67;;;2.65;;
34248;SDS011;20508;50.834;3.160;2022-11-06T03:18:05;4.60;;;2.42;;
34248;SDS011;20508;50.834;3.160;2022-11-06T03:23:42;4.30;;;2.20;;
34248;SDS011;20508;50.834;3.160;2022-11-06T03:26:14;4.43;;;2.47;;
34248;SDS011;20508;50.834;3.160;2022-11-06T03:31:45;5.28;;;2.80;;
34248;SDS011;20508;50.834;3.160;2022-11-06T03:34:19;4.10;;;1.95;;
34248;SDS011;20508;50.834;3.160;2022-11-06T03:36:53;6.95;;;2.80;;
34248;SDS011;20508;50.834;3.160;2022-11-06T03:39:35;4.55;;;2.10;;
34248;SDS011;20508;50.834;3.160;2022-11-06T03:42:05;5.82;;;2.10;;
34248;SDS011;20508;50.834;3.160;2022-11-06T03:44:38;7.13;;;2.28;;
34248;SDS011;20508;50.834;3.160;2022-11-06T03:49:38;4.10;;;2.50;;
34248;SDS011;20508;50.834;3.160;2022-11-06T03:52:22;3.45;;;2.00;;
34248;SDS011;20508;50.834;3.160;2022-11-06T03:54:54;5.18;;;2.50;;
34248;SDS011;20508;50.834;3.160;2022-11-06T03:57:37;4.80;;;2.15;;
34248;SDS011;20508;50.834;3.160;2022-11-06T04:00:07;6.05;;;2.47;;
34248;SDS011;20508;50.834;3.160;2022-11-06T04:02:35;4.95;;;2.20;;
34248;SDS011;20508;50.834;3.160;2022-11-06T04:05:14;4.97;;;2.15;;
34248;SDS011;20508;50.834;3.160;2022-11-06T04:07:45;5.63;;;2.85;;
34248;SDS011;20508;50.834;3.160;2022-11-06T04:10:36;4.60;;;2.20;;
34248;SDS011;20508;50.834;3.160;2022-11-06T04:13:23;5.78;;;2.53;;
34248;SDS011;20508;50.834;3.160;2022-11-06T04:16:09;4.95;;;2.17;;
34248;SDS011;20508;50.834;3.160;2022-11-06T04:18:36;4.60;;;2.15;;
34248;SDS011;20508;50.834;3.160;2022-11-06T04:21:10;4.25;;;2.15;;
34248;SDS011;20508;50.834;3.160;2022-11-06T04:26:51;3.55;;;2.10;;
34248;SDS011;20508;50.834;3.160;2022-11-06T04:37:21;4.88;;;2.25;;
34248;SDS011;20508;50.834;3.160;2022-11-06T04:40:57;5.95;;;2.08;;
34248;SDS011;20508;50.834;3.160;2022-11-06T04:46:06;7.47;;;2.17;;
34248;SDS011;20508;50.834;3.160;2022-11-06T04:48:35;4.28;;;2.50;;
34248;SDS011;20508;50.834;3.160;2022-11-06T04:51:03;4.78;;;2.33;;
34248;SDS011;20508;50.834;3.160;2022-11-06T04:53:32;3.33;;;2.28;;
34248;SDS011;20508;50.834;3.160;2022-11-06T04:56:00;3.60;;;2.03;;
34248;SDS011;20508;50.834;3.160;2022-11-06T04:58:36;4.60;;;2.22;;
34248;SDS011;20508;50.834;3.160;2022-11-06T05:01:02;7.95;;;2.67;;
34248;SDS011;20508;50.834;3.160;2022-11-06T05:03:28;5.00;;;2.28;;
34248;SDS011;20508;50.834;3.160;2022-11-06T05:05:54;5.65;;;2.50;;
34248;SDS011;20508;50.834;3.160;2022-11-06T05:08:20;5.43;;;2.17;;
34248;SDS011;20508;50.834;3.160;2022-11-06T05:10:46;3.83;;;2.85;;
34248;SDS011;20508;50.834;3.160;2022-11-06T05:13:13;4.43;;;2.78;;
34248;SDS011;20508;50.834;3.160;2022-11-06T05:15:39;6.03;;;2.58;;
34248;SDS011;20508;50.834;3.160;2022-11-06T05:18:06;4.90;;;2.50;;
34248;SDS011;20508;50.834;3.160;2022-11-06T05:20:32;6.10;;;2.70;;
34248;SDS011;20508;50.834;3.160;2022-11-06T05:22:58;5.75;;;2.53;;
34248;SDS011;20508;50.834;3.160;2022-11-06T05:25:28;6.85;;;3.45;;
34248;SDS011;20508;50.834;3.160;2022-11-06T05:27:55;5.78;;;2.75;;
34248;SDS011;20508;50.834;3.160;2022-11-06T05:30:22;7.32;;;2.90;;
34248;SDS011;20508;50.834;3.160;2022-11-06T05:32:48;5.40;;;2.90;;
34248;SDS011;20508;50.834;3.160;2022-11-06T05:35:15;4.43;;;2.72;;
34248;SDS011;20508;50.834;3.160;2022-11-06T05:37:41;5.60;;;2.85;;
34248;SDS011;20508;50.834;3.160;2022-11-06T05:40:07;8.73;;;3.10;;
34248;SDS011;20508;50.834;3.160;2022-11-06T05:42:37;5.88;;;2.47;;
34248;SDS011;20508;50.834;3.160;2022-11-06T05:45:04;4.47;;;2.65;;
34248;SDS011;20508;50.834;3.160;2022-11-06T05:47:30;4.43;;;2.25;;
34248;SDS011;20508;50.834;3.160;2022-11-06T05:49:56;5.15;;;2.13;;
34248;SDS011;20508;50.834;3.160;2022-11-06T05:52:21;3.30;;;2.20;;
34248;SDS011;20508;50.834;3.160;2022-11-06T05:54:48;6.07;;;2.67;;
34248;SDS011;20508;50.834;3.160;2022-11-06T05:57:13;6.65;;;2.33;;
34248;SDS011;20508;50.834;3.160;2022-11-06T05:59:39;4.93;;;2.67;;
34248;SDS011;20508;50.834;3.160;2022-11-06T06:02:06;6.43;;;2.50;;
34248;SDS011;20508;50.834;3.160;2022-11-06T06:04:31;3.15;;;1.88;;
34248;SDS011;20508;50.834;3.160;2022-11-06T06:06:57;6.55;;;2.30;;
34248;SDS011;20508;50.834;3.160;2022-11-06T06:09:23;7.78;;;2.40;;
34248;SDS011;20508;50.834;3.160;2022-11-06T06:11:49;5.32;;;2.10;;
34248;SDS011;20508;50.834;3.160;2022-11-06T06:14:16;4.82;;;2.38;;
34248;SDS011;20508;50.834;3.160;2022-11-06T06:16:42;5.97;;;2.85;;
34248;SDS011;20508;50.834;3.160;2022-11-06T06:19:08;9.10;;;2.20;;
34248;SDS011;20508;50.834;3.160;2022-11-06T06:21:34;5.72;;;1.90;;
34248;SDS011;20508;50.834;3.160;2022-11-06T06:24:01;5.50;;;2.17;;
34248;SDS011;20508;50.834;3.160;2022-11-06T06:26:28;3.58;;;2.30;;
34248;SDS011;20508;50.834;3.160;2022-11-06T06:28:53;4.95;;;2.20;;
34248;SDS011;20508;50.834;3.160;2022-11-06T06:31:19;4.93;;;1.92;;
34248;SDS011;20508;50.834;3.160;2022-11-06T06:33:45;5.00;;;2.30;;
34248;SDS011;20508;50.834;3.160;2022-11-06T06:36:12;5.20;;;2.10;;
34248;SDS011;20508;50.834;3.160;2022-11-06T06:38:38;5.03;;;2.33;;
34248;SDS011;20508;50.834;3.160;2022-11-06T06:41:04;5.22;;;2.33;;
34248;SDS011;20508;50.834;3.160;2022-11-06T06:43:31;3.78;;;1.92;;
34248;SDS011;20508;50.834;3.160;2022-11-06T06:45:58;7.22;;;2.40;;
34248;SDS011;20508;50.834;3.160;2022-11-06T06:48:25;5.82;;;2.40;;
34248;SDS011;20508;50.834;3.160;2022-11-06T06:50:51;4.15;;;2.17;;
34248;SDS011;20508;50.834;3.160;2022-11-06T06:53:17;5.68;;;2.55;;
34248;SDS011;20508;50.834;3.160;2022-11-06T06:55:43;6.25;;;2.28;;
34248;SDS011;20508;50.834;3.160;2022-11-06T06:58:08;6.82;;;2.50;;
34248;SDS011;20508;50.834;3.160;2022-11-06T07:00:35;6.95;;;2.50;;
34248;SDS011;20508;50.834;3.160;2022-11-06T07:03:01;3.67;;;1.70;;
34248;SDS011;20508;50.834;3.160;2022-11-06T07:05:27;4.90;;;2.00;;
34248;SDS011;20508;50.834;3.160;2022-11-06T07:07:52;5.18;;;2.35;;
34248;SDS011;20508;50.834;3.160;2022-11-06T07:10:18;5.20;;;2.10;;
34248;SDS011;20508;50.834;3.160;2022-11-06T07:12:44;4.68;;;2.30;;
34248;SDS011;20508;50.834;3.160;2022-11-06T07:15:10;4.85;;;1.92;;
34248;SDS011;20508;50.834;3.160;2022-11-06T07:17:36;4.43;;;1.63;;
34248;SDS011;20508;50.834;3.160;2022-11-06T07:20:02;5.63;;;1.83;;
34248;SDS011;20508;50.834;3.160;2022-11-06T07:22:28;4.32;;;2.00;;
34248;SDS011;20508;50.834;3.160;2022-11-06T07:24:54;5.00;;;1.85;;
34248;SDS011;20508;50.834;3.160;2022-11-06T07:27:19;5.10;;;2.10;;
34248;SDS011;20508;50.834;3.160;2022-11-06T07:29:45;6.28;;;1.90;;
34248;SDS011;20508;50.834;3.160;2022-11-06T07:32:11;5.22;;;1.75;;
34248;SDS011;20508;50.834;3.160;2022-11-06T07:34:36;4.38;;;1.92;;
34248;SDS011;20508;50.834;3.160;2022-11-06T07:37:05;6.07;;;2.47;;
34248;SDS011;20508;50.834;3.160;2022-11-06T07:39:32;5.15;;;2.03;;
34248;SDS011;20508;50.834;3.160;2022-11-06T07:41:58;5.93;;;2.30;;
34248;SDS011;20508;50.834;3.160;2022-11-06T07:44:24;4.43;;;1.60;;
34248;SDS011;20508;50.834;3.160;2022-11-06T07:46:49;6.13;;;2.22;;
34248;SDS011;20508;50.834;3.160;2022-11-06T07:49:15;3.97;;;1.98;;
34248;SDS011;20508;50.834;3.160;2022-11-06T07:51:41;4.95;;;1.88;;
34248;SDS011;20508;50.834;3.160;2022-11-06T07:54:09;4.10;;;1.83;;
34248;SDS011;20508;50.834;3.160;2022-11-06T07:56:35;5.15;;;1.70;;
34248;SDS011;20508;50.834;3.160;2022-11-06T07:59:01;4.05;;;1.77;;
34248;SDS011;20508;50.834;3.160;2022-11-06T08:01:27;4.07;;;2.00;;
34248;SDS011;20508;50.834;3.160;2022-11-06T08:03:53;3.50;;;1.83;;
34248;SDS011;20508;50.834;3.160;2022-11-06T08:06:19;5.43;;;1.90;;
34248;SDS011;20508;50.834;3.160;2022-11-06T08:08:45;6.55;;;1.98;;
34248;SDS011;20508;50.834;3.160;2022-11-06T08:11:10;4.82;;;1.70;;
34248;SDS011;20508;50.834;3.160;2022-11-06T08:13:36;2.75;;;1.60;;
34248;SDS011;20508;50.834;3.160;2022-11-06T08:16:06;5.75;;;1.98;;
34248;SDS011;20508;50.834;3.160;2022-11-06T08:18:34;3.33;;;1.67;;
34248;SDS011;20508;50.834;3.160;2022-11-06T08:21:00;4.35;;;1.77;;
34248;SDS011;20508;50.834;3.160;2022-11-06T08:23:27;5.55;;;1.92;;
34248;SDS011;20508;50.834;3.160;2022-11-06T08:26:02;5.50;;;2.10;;
34248;SDS011;20508;50.834;3.160;2022-11-06T08:28:29;3.83;;;1.63;;
34248;SDS011;20508;50.834;3.160;2022-11-06T08:30:55;7.18;;;1.70;;
34248;SDS011;20508;50.834;3.160;2022-11-06T08:33:21;4.32;;;1.63;;
34248;SDS011;20508;50.834;3.160;2022-11-06T08:35:49;4.53;;;1.70;;
34248;SDS011;20508;50.834;3.160;2022-11-06T08:38:15;6.38;;;2.13;;
34248;SDS011;20508;50.834;3.160;2022-11-06T08:46:48;3.58;;;1.65;;
34248;SDS011;20508;50.834;3.160;2022-11-06T08:49:14;3.15;;;1.70;;
34248;SDS011;20508;50.834;3.160;2022-11-06T08:51:40;6.40;;;2.00;;
34248;SDS011;20508;50.834;3.160;2022-11-06T08:54:05;4.60;;;2.20;;
34248;SDS011;20508;50.834;3.160;2022-11-06T08:56:31;4.35;;;1.92;;
34248;SDS011;20508;50.834;3.160;2022-11-06T08:58:57;3.10;;;1.65;;
34248;SDS011;20508;50.834;3.160;2022-11-06T09:01:22;3.78;;;1.83;;
34248;SDS011;20508;50.834;3.160;2022-11-06T09:03:48;4.95;;;1.92;;
34248;SDS011;20508;50.834;3.160;2022-11-06T09:06:14;6.05;;;2.38;;
34248;SDS011;20508;50.834;3.160;2022-11-06T09:08:39;5.85;;;2.00;;
34248;SDS011;20508;50.834;3.160;2022-11-06T09:11:05;4.18;;;1.77;;
34248;SDS011;20508;50.834;3.160;2022-11-06T09:13:34;3.67;;;1.73;;
34248;SDS011;20508;50.834;3.160;2022-11-06T09:16:00;6.75;;;2.10;;
34248;SDS011;20508;50.834;3.160;2022-11-06T09:18:26;7.07;;;2.33;;
34248;SDS011;20508;50.834;3.160;2022-11-06T09:20:55;3.90;;;1.90;;
34248;SDS011;20508;50.834;3.160;2022-11-06T09:23:21;4.97;;;2.00;;
34248;SDS011;20508;50.834;3.160;2022-11-06T09:25:48;3.95;;;1.80;;
34248;SDS011;20508;50.834;3.160;2022-11-06T09:28:14;6.22;;;2.00;;
34248;SDS011;20508;50.834;3.160;2022-11-06T09:33:30;5.70;;;2.25;;
34248;SDS011;20508;50.834;3.160;2022-11-06T09:39:18;9.00;;;2.33;;
34248;SDS011;20508;50.834;3.160;2022-11-06T09:41:50;4.38;;;2.20;;
34248;SDS011;20508;50.834;3.160;2022-11-06T09:47:09;5.10;;;2.00;;
34248;SDS011;20508;50.834;3.160;2022-11-06T09:49:43;4.93;;;2.05;;
34248;SDS011;20508;50.834;3.160;2022-11-06T09:52:18;5.40;;;1.90;;
34248;SDS011;20508;50.834;3.160;2022-11-06T09:55:03;6.35;;;2.03;;
34248;SDS011;20508;50.834;3.160;2022-11-06T09:57:55;6.40;;;2.55;;
34248;SDS011;20508;50.834;3.160;2022-11-06T10:00:24;5.85;;;1.67;;
34248;SDS011;20508;50.834;3.160;2022-11-06T10:02:54;3.33;;;1.67;;
34248;SDS011;20508;50.834;3.160;2022-11-06T10:05:34;2.50;;;1.67;;
34248;SDS011;20508;50.834;3.160;2022-11-06T10:13:51;4.60;;;1.80;;
34248;SDS011;20508;50.834;3.160;2022-11-06T10:16:14;3.95;;;1.80;;
34248;SDS011;20508;50.834;3.160;2022-11-06T10:21:44;5.30;;;1.90;;
34248;SDS011;20508;50.834;3.160;2022-11-06T10:24:22;5.97;;;1.88;;
34248;SDS011;20508;50.834;3.160;2022-11-06T10:26:55;4.20;;;1.80;;
34248;SDS011;20508;50.834;3.160;2022-11-06T10:29:29;2.45;;;1.63;;
34248;SDS011;20508;50.834;3.160;2022-11-06T10:34:53;7.18;;;1.83;;
34248;SDS011;20508;50.834;3.160;2022-11-06T10:37:38;5.68;;;1.80;;
34248;SDS011;20508;50.834;3.160;2022-11-06T10:40:18;5.50;;;1.67;;
34248;SDS011;20508;50.834;3.160;2022-11-06T10:42:51;4.55;;;1.70;;
34248;SDS011;20508;50.834;3.160;2022-11-06T10:45:31;4.18;;;1.80;;
34248;SDS011;20508;50.834;3.160;2022-11-06T10:48:16;4.15;;;1.70;;
34248;SDS011;20508;50.834;3.160;2022-11-06T10:50:47;6.07;;;1.90;;
34248;SDS011;20508;50.834;3.160;2022-11-06T10:53:34;4.93;;;1.90;;
34248;SDS011;20508;50.834;3.160;2022-11-06T10:56:27;4.47;;;1.73;;
34248;SDS011;20508;50.834;3.160;2022-11-06T10:59:11;4.07;;;1.52;;
34248;SDS011;20508;50.834;3.160;2022-11-06T11:01:38;2.78;;;1.25;;
34248;SDS011;20508;50.834;3.160;2022-11-06T11:04:04;4.85;;;1.73;;
34248;SDS011;20508;50.834;3.160;2022-11-06T11:06:30;2.97;;;1.63;;
34248;SDS011;20508;50.834;3.160;2022-11-06T11:08:56;5.32;;;1.60;;
34248;SDS011;20508;50.834;3.160;2022-11-06T11:11:25;4.82;;;1.98;;
34248;SDS011;20508;50.834;3.160;2022-11-06T11:16:54;3.83;;;1.67;;
34248;SDS011;20508;50.834;3.160;2022-11-06T11:19:33;5.68;;;1.75;;
34248;SDS011;20508;50.834;3.160;2022-11-06T11:27:25;5.07;;;2.42;;
34248;SDS011;20508;50.834;3.160;2022-11-06T11:29:52;3.33;;;2.00;;
34248;SDS011;20508;50.834;3.160;2022-11-06T11:32:19;3.28;;;2.10;;
34248;SDS011;20508;50.834;3.160;2022-11-06T11:34:46;5.35;;;2.33;;
34248;SDS011;20508;50.834;3.160;2022-11-06T11:37:25;6.97;;;2.38;;
34248;SDS011;20508;50.834;3.160;2022-11-06T11:43:16;5.38;;;2.15;;
34248;SDS011;20508;50.834;3.160;2022-11-06T11:46:29;5.22;;;2.08;;
34248;SDS011;20508;50.834;3.160;2022-11-06T11:48:42;4.25;;;2.00;;
34248;SDS011;20508;50.834;3.160;2022-11-06T11:51:22;6.45;;;1.90;;
34248;SDS011;20508;50.834;3.160;2022-11-06T11:54:04;4.07;;;2.10;;
34248;SDS011;20508;50.834;3.160;2022-11-06T11:56:31;6.27;;;1.70;;
34248;SDS011;20508;50.834;3.160;2022-11-06T11:59:16;7.03;;;2.28;;
34248;SDS011;20508;50.834;3.160;2022-11-06T12:04:21;6.78;;;2.20;;
34248;SDS011;20508;50.834;3.160;2022-11-06T12:06:59;5.50;;;1.90;;
34248;SDS011;20508;50.834;3.160;2022-11-06T12:09:28;7.32;;;2.20;;
34248;SDS011;20508;50.834;3.160;2022-11-06T12:11:58;7.80;;;2.22;;
34248;SDS011;20508;50.834;3.160;2022-11-06T12:14:35;7.60;;;2.22;;
34248;SDS011;20508;50.834;3.160;2022-11-06T12:17:16;5.35;;;1.73;;
34248;SDS011;20508;50.834;3.160;2022-11-06T12:19:50;6.00;;;1.95;;
34248;SDS011;20508;50.834;3.160;2022-11-06T12:22:27;5.82;;;1.98;;
34248;SDS011;20508;50.834;3.160;2022-11-06T12:27:37;6.55;;;2.22;;
34248;SDS011;20508;50.834;3.160;2022-11-06T12:30:12;4.20;;;1.90;;
34248;SDS011;20508;50.834;3.160;2022-11-06T12:35:20;4.72;;;2.10;;
34248;SDS011;20508;50.834;3.160;2022-11-06T12:43:46;3.53;;;1.98;;
34248;SDS011;20508;50.834;3.160;2022-11-06T12:46:17;2.97;;;1.80;;
34248;SDS011;20508;50.834;3.160;2022-11-06T13:03:36;6.45;;;2.20;;
34248;SDS011;20508;50.834;3.160;2022-11-06T13:09:19;4.70;;;2.15;;
34248;SDS011;20508;50.834;3.160;2022-11-06T13:14:52;3.78;;;1.90;;
34248;SDS011;20508;50.834;3.160;2022-11-06T13:17:31;3.08;;;1.70;;
34248;SDS011;20508;50.834;3.160;2022-11-06T13:20:18;4.95;;;2.35;;
34248;SDS011;20508;50.834;3.160;2022-11-06T13:23:03;3.97;;;1.88;;
34248;SDS011;20508;50.834;3.160;2022-11-06T13:30:58;2.90;;;1.60;;
34248;SDS011;20508;50.834;3.160;2022-11-06T13:33:40;3.95;;;1.90;;
34248;SDS011;20508;50.834;3.160;2022-11-06T13:36:11;3.80;;;2.15;;
34248;SDS011;20508;50.834;3.160;2022-11-06T13:38:39;6.63;;;2.22;;
34248;SDS011;20508;50.834;3.160;2022-11-06T13:41:24;5.82;;;2.35;;
34248;SDS011;20508;50.834;3.160;2022-11-06T13:43:57;4.28;;;2.33;;
34248;SDS011;20508;50.834;3.160;2022-11-06T13:46:38;6.13;;;2.03;;
34248;SDS011;20508;50.834;3.160;2022-11-06T13:52:14;2.60;;;1.73;;
34248;SDS011;20508;50.834;3.160;2022-11-06T13:55:08;2.72;;;1.33;;
34248;SDS011;20508;50.834;3.160;2022-11-06T14:00:45;3.58;;;1.90;;
34248;SDS011;20508;50.834;3.160;2022-11-06T14:06:25;4.75;;;2.03;;
34248;SDS011;20508;50.834;3.160;2022-11-06T14:09:10;4.40;;;1.63;;
34248;SDS011;20508;50.834;3.160;2022-11-06T14:11:59;3.72;;;1.98;;
34248;SDS011;20508;50.834;3.160;2022-11-06T14:14:29;3.35;;;1.90;;
34248;SDS011;20508;50.834;3.160;2022-11-06T14:19:41;3.25;;;1.67;;
34248;SDS011;20508;50.834;3.160;2022-11-06T14:22:25;4.25;;;2.08;;
34248;SDS011;20508;50.834;3.160;2022-11-06T14:24:56;2.90;;;1.90;;
34248;SDS011;20508;50.834;3.160;2022-11-06T14:32:37;3.55;;;1.67;;
34248;SDS011;20508;50.834;3.160;2022-11-06T14:40:34;2.40;;;1.67;;
34248;SDS011;20508;50.834;3.160;2022-11-06T14:45:49;2.10;;;1.85;;
34248;SDS011;20508;50.834;3.160;2022-11-06T14:48:31;2.80;;;1.65;;
34248;SDS011;20508;50.834;3.160;2022-11-06T14:51:02;3.15;;;2.00;;
34248;SDS011;20508;50.834;3.160;2022-11-06T14:53:35;2.78;;;2.00;;
34248;SDS011;20508;50.834;3.160;2022-11-06T14:56:05;4.15;;;1.90;;
34248;SDS011;20508;50.834;3.160;2022-11-06T14:58:40;2.90;;;2.03;;
34248;SDS011;20508;50.834;3.160;2022-11-06T15:01:15;4.07;;;1.85;;
34248;SDS011;20508;50.834;3.160;2022-11-06T15:03:58;2.67;;;1.80;;
34248;SDS011;20508;50.834;3.160;2022-11-06T15:08:56;3.13;;;1.70;;
34248;SDS011;20508;50.834;3.160;2022-11-06T15:16:26;3.22;;;1.90;;
34248;SDS011;20508;50.834;3.160;2022-11-06T15:19:17;2.45;;;1.90;;
34248;SDS011;20508;50.834;3.160;2022-11-06T15:24:30;4.28;;;1.85;;
34248;SDS011;20508;50.834;3.160;2022-11-06T15:27:17;3.33;;;1.90;;
34248;SDS011;20508;50.834;3.160;2022-11-06T15:29:46;2.60;;;2.03;;
34248;SDS011;20508;50.834;3.160;2022-11-06T15:32:27;2.20;;;1.77;;
34248;SDS011;20508;50.834;3.160;2022-11-06T15:37:39;4.40;;;1.90;;
34248;SDS011;20508;50.834;3.160;2022-11-06T15:40:26;3.35;;;2.00;;
34248;SDS011;20508;50.834;3.160;2022-11-06T15:42:59;3.67;;;2.10;;
34248;SDS011;20508;50.834;3.160;2022-11-06T15:45:30;2.75;;;1.67;;
34248;SDS011;20508;50.834;3.160;2022-11-06T15:50:32;3.35;;;2.03;;
34248;SDS011;20508;50.834;3.160;2022-11-06T15:55:43;3.90;;;2.20;;
34248;SDS011;20508;50.834;3.160;2022-11-06T16:00:45;1.90;;;1.67;;
34248;SDS011;20508;50.834;3.160;2022-11-06T16:03:12;3.20;;;1.98;;
34248;SDS011;20508;50.834;3.160;2022-11-06T16:05:40;1.80;;;1.38;;
34248;SDS011;20508;50.834;3.160;2022-11-06T16:08:10;2.22;;;1.90;;
34248;SDS011;20508;50.834;3.160;2022-11-06T16:10:41;2.60;;;1.83;;
34248;SDS011;20508;50.834;3.160;2022-11-06T16:13:09;2.88;;;1.80;;
34248;SDS011;20508;50.834;3.160;2022-11-06T16:20:51;3.20;;;1.60;;
34248;SDS011;20508;50.834;3.160;2022-11-06T16:26:10;3.35;;;1.92;;
34248;SDS011;20508;50.834;3.160;2022-11-06T16:28:44;2.25;;;1.70;;
34248;SDS011;20508;50.834;3.160;2022-11-06T16:31:15;2.95;;;1.70;;
34248;SDS011;20508;50.834;3.160;2022-11-06T16:34:03;3.40;;;1.85;;
34248;SDS011;20508;50.834;3.160;2022-11-06T16:36:47;4.30;;;1.60;;
34248;SDS011;20508;50.834;3.160;2022-11-06T16:42:42;2.92;;;1.80;;
34248;SDS011;20508;50.834;3.160;2022-11-06T16:49:35;4.57;;;2.42;;
34248;SDS011;20508;50.834;3.160;2022-11-06T16:52:23;2.45;;;2.22;;
34248;SDS011;20508;50.834;3.160;2022-11-06T16:54:56;2.50;;;2.30;;
34248;SDS011;20508;50.834;3.160;2022-11-06T16:57:41;2.90;;;2.40;;
34248;SDS011;20508;50.834;3.160;2022-11-06T17:02:50;3.35;;;2.33;;
34248;SDS011;20508;50.834;3.160;2022-11-06T17:05:23;3.65;;;2.67;;
34248;SDS011;20508;50.834;3.160;2022-11-06T17:08:07;2.63;;;2.42;;
34248;SDS011;20508;50.834;3.160;2022-11-06T17:11:14;3.45;;;2.15;;
34248;SDS011;20508;50.834;3.160;2022-11-06T17:13:46;3.20;;;2.83;;
34248;SDS011;20508;50.834;3.160;2022-11-06T17:16:14;3.33;;;2.47;;
34248;SDS011;20508;50.834;3.160;2022-11-06T17:18:42;3.40;;;2.25;;
34248;SDS011;20508;50.834;3.160;2022-11-06T17:21:12;3.00;;;2.63;;
34248;SDS011;20508;50.834;3.160;2022-11-06T17:23:40;4.20;;;2.50;;
34248;SDS011;20508;50.834;3.160;2022-11-06T17:28:50;3.85;;;3.15;;
34248;SDS011;20508;50.834;3.160;2022-11-06T17:31:19;3.90;;;2.90;;
34248;SDS011;20508;50.834;3.160;2022-11-06T17:33:45;2.70;;;2.50;;
34248;SDS011;20508;50.834;3.160;2022-11-06T17:36:20;3.80;;;2.58;;
34248;SDS011;20508;50.834;3.160;2022-11-06T17:38:51;4.97;;;2.75;;
34248;SDS011;20508;50.834;3.160;2022-11-06T17:41:18;4.60;;;2.95;;
34248;SDS011;20508;50.834;3.160;2022-11-06T17:44:05;3.90;;;3.00;;
34248;SDS011;20508;50.834;3.160;2022-11-06T17:46:43;4.00;;;3.30;;
34248;SDS011;20508;50.834;3.160;2022-11-06T17:49:11;3.78;;;3.47;;
34248;SDS011;20508;50.834;3.160;2022-11-06T17:51:38;6.72;;;3.50;;
34248;SDS011;20508;50.834;3.160;2022-11-06T17:54:39;4.32;;;3.17;;
34248;SDS011;20508;50.834;3.160;2022-11-06T17:57:05;5.80;;;4.05;;
34248;SDS011;20508;50.834;3.160;2022-11-06T17:59:32;5.10;;;3.95;;
34248;SDS011;20508;50.834;3.160;2022-11-06T18:01:59;4.30;;;3.50;;
34248;SDS011;20508;50.834;3.160;2022-11-06T18:04:25;5.13;;;3.55;;
34248;SDS011;20508;50.834;3.160;2022-11-06T18:06:54;6.38;;;3.85;;
34248;SDS011;20508;50.834;3.160;2022-11-06T18:09:21;4.38;;;3.80;;
34248;SDS011;20508;50.834;3.160;2022-11-06T18:11:47;4.75;;;4.30;;
34248;SDS011;20508;50.834;3.160;2022-11-06T18:14:15;4.80;;;4.03;;
34248;SDS011;20508;50.834;3.160;2022-11-06T18:16:41;6.68;;;4.13;;
34248;SDS011;20508;50.834;3.160;2022-11-06T18:19:07;6.60;;;4.10;;
34248;SDS011;20508;50.834;3.160;2022-11-06T18:21:34;4.10;;;3.70;;
34248;SDS011;20508;50.834;3.160;2022-11-06T18:24:01;6.32;;;4.13;;